createdAt,value
2016-09-06T00:00:34.065Z,88.9
2016-09-06T00:01:34.064Z,89.28
2016-09-06T00:02:34.069Z,89.57
2016-09-06T00:03:34.071Z,90.05
2016-09-06T00:04:34.066Z,90.14
2016-09-06T00:05:34.066Z,89.95
2016-09-06T00:06:34.068Z,90.05
2016-09-06T00:07:34.068Z,89.76
2016-09-06T00:08:34.070Z,89.95
2016-09-06T00:09:34.315Z,89.76
2016-09-06T00:10:34.071Z,89.76
2016-09-06T00:11:34.069Z,89.76
2016-09-06T00:12:34.385Z,89.95
2016-09-06T00:13:34.075Z,89.95
2016-09-06T00:14:34.074Z,89.86
2016-09-06T00:15:34.073Z,89.66
2016-09-06T00:16:34.076Z,89.76
2016-09-06T00:17:34.075Z,89.95
2016-09-06T00:18:34.077Z,90.29
2016-09-06T00:19:34.080Z,90.43
2016-09-06T00:20:34.079Z,90.23
2016-09-06T00:21:34.078Z,89.86
2016-09-06T00:22:34.081Z,89.95
2016-09-06T00:23:34.081Z,89.95
2016-09-06T00:24:34.082Z,89.76
2016-09-06T00:25:34.082Z,89.76
2016-09-06T00:26:34.083Z,89.95
2016-09-06T00:27:34.410Z,90.43
2016-09-06T00:28:34.086Z,90.33
2016-09-06T00:29:34.085Z,90.14
2016-09-06T00:30:34.087Z,89.95
2016-09-06T00:31:34.105Z,90.14
2016-09-06T00:32:34.093Z,89.86
2016-09-06T00:33:34.098Z,90.14
2016-09-06T00:34:34.243Z,89.76
2016-09-06T00:35:34.099Z,90.23
2016-09-06T00:36:34.091Z,90.05
2016-09-06T00:37:34.104Z,90.14
2016-09-06T00:38:34.092Z,90.14
2016-09-06T00:39:34.098Z,89.95
2016-09-06T00:40:34.118Z,89.66
2016-09-06T00:41:34.105Z,89.76
2016-09-06T00:42:34.101Z,89.76
2016-09-06T00:43:34.104Z,90.43
2016-09-06T00:44:34.105Z,90.14
2016-09-06T00:45:34.113Z,90.23
2016-09-06T00:46:34.106Z,89.76
2016-09-06T00:47:34.111Z,89.57
2016-09-06T00:48:34.105Z,89.76
2016-09-06T00:49:34.113Z,90.05
2016-09-06T00:50:34.111Z,89.86
2016-09-06T00:51:34.111Z,89.95
2016-09-06T00:52:34.115Z,89.57
2016-09-06T00:53:34.110Z,89.57
2016-09-06T00:54:34.114Z,89.95
2016-09-06T00:55:34.116Z,89.76
2016-09-06T00:56:34.111Z,89.66
2016-09-06T00:57:34.117Z,89.95
2016-09-06T00:58:34.116Z,90.23
2016-09-06T00:59:34.112Z,90.05
2016-09-06T01:00:34.115Z,90.33
2016-09-06T01:01:34.114Z,90.05
2016-09-06T01:02:34.116Z,90.43
2016-09-06T01:03:34.115Z,89.95
2016-09-06T01:04:34.118Z,89.86
2016-09-06T01:05:34.121Z,90.05
2016-09-06T01:06:34.123Z,89.95
2016-09-06T01:07:34.116Z,90.05
2016-09-06T01:08:34.119Z,89.76
2016-09-06T01:09:34.117Z,89.57
2016-09-06T01:10:34.119Z,89.95
2016-09-06T01:11:34.123Z,89.57
2016-09-06T01:12:34.119Z,89.57
2016-09-06T01:13:34.137Z,90.14
2016-09-06T01:14:34.123Z,90.23
2016-09-06T01:15:34.123Z,90.23
2016-09-06T01:16:34.128Z,89.76
2016-09-06T01:17:34.125Z,89.86
2016-09-06T01:18:34.123Z,89.57
2016-09-06T01:19:34.127Z,89.86
2016-09-06T01:20:34.130Z,89.86
2016-09-06T01:21:34.130Z,89.76
2016-09-06T01:22:34.127Z,89.76
2016-09-06T01:23:34.127Z,90.43
2016-09-06T01:24:34.126Z,89.76
2016-09-06T01:25:34.129Z,89.86
2016-09-06T01:26:34.132Z,90.33
2016-09-06T01:27:34.132Z,89.86
2016-09-06T01:28:34.132Z,89.95
2016-09-06T01:29:34.134Z,90.62
2016-09-06T01:30:34.135Z,90.62
2016-09-06T01:31:34.142Z,90.53
2016-09-06T01:32:34.135Z,90.91
2016-09-06T01:33:34.143Z,91.25
2016-09-06T01:34:34.437Z,91.25
2016-09-06T01:35:34.148Z,91.25
2016-09-06T01:36:34.152Z,92.11
2016-09-06T01:37:34.147Z,92.11
2016-09-06T01:38:34.183Z,91.63
2016-09-06T01:39:34.144Z,92.01
2016-09-06T01:40:34.152Z,92.01
2016-09-06T01:41:34.146Z,91.82
2016-09-06T01:42:34.154Z,92.49
2016-09-06T01:43:34.148Z,92.58
2016-09-06T01:44:34.154Z,92.49
2016-09-06T01:45:34.394Z,93.16
2016-09-06T01:46:34.153Z,93.16
2016-09-06T01:47:34.153Z,93.35
2016-09-06T01:48:34.156Z,93.26
2016-09-06T01:49:34.161Z,93.3
2016-09-06T01:50:34.162Z,93.4
2016-09-06T01:51:34.153Z,93.79
2016-09-06T01:52:34.160Z,93.59
2016-09-06T01:53:34.159Z,93.79
2016-09-06T01:54:34.161Z,94.17
2016-09-06T01:55:34.157Z,93.69
2016-09-06T01:56:34.160Z,94.26
2016-09-06T01:57:34.160Z,94.74
2016-09-06T01:58:34.162Z,94.55
2016-09-06T01:59:34.161Z,94.36
2016-09-06T02:00:34.161Z,94.55
2016-09-06T02:01:34.163Z,94.65
2016-09-06T02:02:34.166Z,94.55
2016-09-06T02:03:34.162Z,94.36
2016-09-06T02:04:34.164Z,95.51
2016-09-06T02:05:34.164Z,95.22
2016-09-06T02:06:34.167Z,95.12
2016-09-06T02:07:34.166Z,95.22
2016-09-06T02:08:34.167Z,95.41
2016-09-06T02:09:34.169Z,95.12
2016-09-06T02:10:34.167Z,95.31
2016-09-06T02:11:34.168Z,96.08
2016-09-06T02:12:34.168Z,95.56
2016-09-06T02:13:34.168Z,95.41
2016-09-06T02:14:34.161Z,96.03
2016-09-06T02:15:34.170Z,95.27
2016-09-06T02:16:34.164Z,95.36
2016-09-06T02:17:34.161Z,95.46
2016-09-06T02:18:34.166Z,95.84
2016-09-06T02:19:34.166Z,95.36
2016-09-06T02:20:34.172Z,95.36
2016-09-06T02:21:34.172Z,95.27
2016-09-06T02:22:34.163Z,95.27
2016-09-06T02:23:34.174Z,95.65
2016-09-06T02:24:34.169Z,96.22
2016-09-06T02:25:34.163Z,95.75
2016-09-06T02:26:34.171Z,95.94
2016-09-06T02:27:34.172Z,96.03
2016-09-06T02:28:34.164Z,95.94
2016-09-06T02:29:34.164Z,96.03
2016-09-06T02:30:34.171Z,95.94
2016-09-06T02:31:34.166Z,96.61
2016-09-06T02:32:34.176Z,96.03
2016-09-06T02:33:34.169Z,96.32
2016-09-06T02:34:34.223Z,96.32
2016-09-06T02:35:34.480Z,96.51
2016-09-06T02:36:34.168Z,96.03
2016-09-06T02:37:34.181Z,96.42
2016-09-06T02:38:34.179Z,95.75
2016-09-06T02:39:34.170Z,96.61
2016-09-06T02:40:34.188Z,96.7
2016-09-06T02:41:34.189Z,96.51
2016-09-06T02:42:34.187Z,96.99
2016-09-06T02:43:34.188Z,96.51
2016-09-06T02:44:34.168Z,96.84
2016-09-06T02:45:34.169Z,96.61
2016-09-06T02:46:34.170Z,96.89
2016-09-06T02:47:34.193Z,96.89
2016-09-06T02:48:34.195Z,96.89
2016-09-06T02:49:34.176Z,96.7
2016-09-06T02:50:34.191Z,96.7
2016-09-06T02:51:34.169Z,96.84
2016-09-06T02:52:34.171Z,96.61
2016-09-06T02:53:34.171Z,97.18
2016-09-06T02:54:34.176Z,96.7
2016-09-06T02:55:34.174Z,97.18
2016-09-06T02:56:34.177Z,96.99
2016-09-06T02:57:34.175Z,97.08
2016-09-06T02:58:34.184Z,96.89
2016-09-06T02:59:34.174Z,96.89
2016-09-06T03:00:34.178Z,96.7
2016-09-06T03:01:34.176Z,96.32
2016-09-06T03:02:34.179Z,96.32
2016-09-06T03:03:34.182Z,96.75
2016-09-06T03:04:34.178Z,96.84
2016-09-06T03:05:34.170Z,97.37
2016-09-06T03:06:34.184Z,97.28
2016-09-06T03:07:34.194Z,97.08
2016-09-06T03:08:34.171Z,97.47
2016-09-06T03:09:34.176Z,97.23
2016-09-06T03:10:34.414Z,97.85
2016-09-06T03:11:34.172Z,96.99
2016-09-06T03:12:34.175Z,97.42
2016-09-06T03:13:34.182Z,97.23
2016-09-06T03:14:34.172Z,97.47
2016-09-06T03:15:34.172Z,97.42
2016-09-06T03:16:34.171Z,97.04
2016-09-06T03:17:34.173Z,96.84
2016-09-06T03:18:34.172Z,96.89
2016-09-06T03:19:34.178Z,97.04
2016-09-06T03:20:34.172Z,97.42
2016-09-06T03:21:34.172Z,97.33
2016-09-06T03:22:34.177Z,97.23
2016-09-06T03:23:34.182Z,97.61
2016-09-06T03:24:34.173Z,97.71
2016-09-06T03:25:34.174Z,97.23
2016-09-06T03:26:34.174Z,97.52
2016-09-06T03:27:34.186Z,97.52
2016-09-06T03:28:34.175Z,97.61
2016-09-06T03:29:34.179Z,97.61
2016-09-06T03:30:34.177Z,97.33
2016-09-06T03:31:34.175Z,97.61
2016-09-06T03:32:34.174Z,97.8
2016-09-06T03:33:34.174Z,97.99
2016-09-06T03:34:34.325Z,97.99
2016-09-06T03:35:34.174Z,97.99
2016-09-06T03:36:34.174Z,97.9
2016-09-06T03:37:34.179Z,97.99
2016-09-06T03:38:34.182Z,97.99
2016-09-06T03:39:34.179Z,97.99
2016-09-06T03:40:34.174Z,98.09
2016-09-06T03:41:34.175Z,98.18
2016-09-06T03:42:34.175Z,97.8
2016-09-06T03:43:34.177Z,98.28
2016-09-06T03:44:34.173Z,98.18
2016-09-06T03:45:34.178Z,98.66
2016-09-06T03:46:34.175Z,98.47
2016-09-06T03:47:34.182Z,98.28
2016-09-06T03:48:34.173Z,97.99
2016-09-06T03:49:34.175Z,98.18
2016-09-06T03:50:34.173Z,98.09
2016-09-06T03:51:34.178Z,98.38
2016-09-06T03:52:34.177Z,98.18
2016-09-06T03:53:34.175Z,98.95
2016-09-06T03:54:34.174Z,98.28
2016-09-06T03:55:34.174Z,98.47
2016-09-06T03:56:34.176Z,98.66
2016-09-06T03:57:34.172Z,99.04
2016-09-06T03:58:34.173Z,98.75
2016-09-06T03:59:34.172Z,99.43
2016-09-06T04:00:34.174Z,98.95
2016-09-06T04:01:34.174Z,99.33
2016-09-06T04:02:34.174Z,99.76
2016-09-06T04:03:34.171Z,99.81
2016-09-06T04:04:34.489Z,99.81
2016-09-06T04:05:34.171Z,99.76
2016-09-06T04:06:34.174Z,99.66
2016-09-06T04:07:34.173Z,99.28
2016-09-06T04:08:34.172Z,99.85
2016-09-06T04:09:34.171Z,99.99
2016-09-06T04:10:34.172Z,99.95
2016-09-06T04:11:34.170Z,99.57
2016-09-06T04:12:34.484Z,99.48
2016-09-06T04:13:34.170Z,99.38
2016-09-06T04:14:34.173Z,99.9
2016-09-06T04:15:34.172Z,99.38
2016-09-06T04:16:34.171Z,99.38
2016-09-06T04:17:34.170Z,99.48
2016-09-06T04:18:34.171Z,99.95
2016-09-06T04:19:34.167Z,99.48
2016-09-06T04:20:34.169Z,98.99
2016-09-06T04:21:34.168Z,99.09
2016-09-06T04:22:34.172Z,99.95
2016-09-06T04:23:34.167Z,99.85
2016-09-06T04:24:34.170Z,99.76
2016-09-06T04:25:34.174Z,99.66
2016-09-06T04:26:34.166Z,99.19
2016-09-06T04:27:34.168Z,99.99
2016-09-06T04:28:34.176Z,99.66
2016-09-06T04:29:34.165Z,99.76
2016-09-06T04:30:34.171Z,99.57
2016-09-06T04:31:34.167Z,99.57
2016-09-06T04:32:34.166Z,99.38
2016-09-06T04:33:34.170Z,99.85
2016-09-06T04:34:34.270Z,99.57
2016-09-06T04:35:34.169Z,99.62
2016-09-06T04:36:34.166Z,99.57
2016-09-06T04:37:34.180Z,99.43
2016-09-06T04:38:34.170Z,99.52
2016-09-06T04:39:34.167Z,98.95
2016-09-06T04:40:34.167Z,99.33
2016-09-06T04:41:34.166Z,99.19
2016-09-06T04:42:34.167Z,98.75
2016-09-06T04:43:34.177Z,98.61
2016-09-06T04:44:34.168Z,98.52
2016-09-06T04:45:34.171Z,98.95
2016-09-06T04:46:34.164Z,99.14
2016-09-06T04:47:34.167Z,99.38
2016-09-06T04:48:34.165Z,99.48
2016-09-06T04:49:34.170Z,99.14
2016-09-06T04:50:34.165Z,99.38
2016-09-06T04:51:34.164Z,99.52
2016-09-06T04:52:34.164Z,99.99
2016-09-06T04:53:34.166Z,99.81
2016-09-06T04:54:34.165Z,99.43
2016-09-06T04:55:34.162Z,99.9
2016-09-06T04:56:34.171Z,99.43
2016-09-06T04:57:34.483Z,98.95
2016-09-06T04:58:34.172Z,99.43
2016-09-06T04:59:34.164Z,98.47
2016-09-06T05:00:34.167Z,98.66
2016-09-06T05:01:34.166Z,98.75
2016-09-06T05:02:34.168Z,98.66
2016-09-06T05:03:34.174Z,99.24
2016-09-06T05:04:34.165Z,98.47
2016-09-06T05:05:34.168Z,98.57
2016-09-06T05:06:34.169Z,98.57
2016-09-06T05:07:34.167Z,99.04
2016-09-06T05:08:34.170Z,98.75
2016-09-06T05:09:34.170Z,98.57
2016-09-06T05:10:34.161Z,98.38
2016-09-06T05:11:34.173Z,98.75
2016-09-06T05:12:34.171Z,98.28
2016-09-06T05:13:34.173Z,98.09
2016-09-06T05:14:34.162Z,98.57
2016-09-06T05:15:34.171Z,98.18
2016-09-06T05:16:34.163Z,98.18
2016-09-06T05:17:34.160Z,97.99
2016-09-06T05:18:34.161Z,97.23
2016-09-06T05:19:34.162Z,96.42
2016-09-06T05:20:34.164Z,95.07
2016-09-06T05:21:34.165Z,94.45
2016-09-06T05:22:34.166Z,92.83
2016-09-06T05:23:34.163Z,91.3
2016-09-06T05:24:34.163Z,90.86
2016-09-06T05:25:34.165Z,89.9
2016-09-06T05:26:34.163Z,89.09
2016-09-06T05:27:34.166Z,88.03
2016-09-06T05:28:34.169Z,86.83
2016-09-06T05:29:34.169Z,85.11
2016-09-06T05:30:34.171Z,84.44
2016-09-06T05:31:34.415Z,83.52
2016-09-06T05:32:34.168Z,82.85
2016-09-06T05:33:34.169Z,81.64
2016-09-06T05:34:34.222Z,81.26
2016-09-06T05:35:34.171Z,80.4
2016-09-06T05:36:34.184Z,80.05
2016-09-06T05:37:34.175Z,79.57
2016-09-06T05:38:34.185Z,79.28
2016-09-06T05:39:34.186Z,78.61
2016-09-06T05:40:34.189Z,78.03
2016-09-06T05:41:34.189Z,78.99
2016-09-06T05:42:34.193Z,79.09
2016-09-06T05:43:34.188Z,80.3
2016-09-06T05:44:34.192Z,81.45
2016-09-06T05:45:34.194Z,81.6
2016-09-06T05:46:34.192Z,83.23
2016-09-06T05:47:34.193Z,83.33
2016-09-06T05:48:34.197Z,84.25
2016-09-06T05:49:34.196Z,85.01
2016-09-06T05:50:34.198Z,85.01
2016-09-06T05:51:34.217Z,85.49
2016-09-06T05:52:34.200Z,86.21
2016-09-06T05:53:34.207Z,86.02
2016-09-06T05:54:34.204Z,86.88
2016-09-06T05:55:34.207Z,87.17
2016-09-06T05:56:34.209Z,87.37
2016-09-06T05:57:34.209Z,87.27
2016-09-06T05:58:34.210Z,87.84
2016-09-06T05:59:34.213Z,87.17
2016-09-06T06:00:34.215Z,86.88
2016-09-06T06:01:34.211Z,87.27
2016-09-06T06:02:34.217Z,87.17
2016-09-06T06:03:34.231Z,87.27
2016-09-06T06:04:34.269Z,87.27
2016-09-06T06:05:34.283Z,86.88
2016-09-06T06:06:34.232Z,87.17
2016-09-06T06:07:34.228Z,86.88
2016-09-06T06:08:34.222Z,87.37
2016-09-06T06:09:34.239Z,86.79
2016-09-06T06:10:34.324Z,86.41
2016-09-06T06:11:34.551Z,86.69
2016-09-06T06:12:34.228Z,86.21
2016-09-06T06:13:34.240Z,86.31
2016-09-06T06:14:34.242Z,86.25
2016-09-06T06:15:34.288Z,85.97
2016-09-06T06:16:34.234Z,85.97
2016-09-06T06:17:34.233Z,85.58
2016-09-06T06:18:34.242Z,85.78
2016-09-06T06:19:34.246Z,85.49
2016-09-06T06:20:34.304Z,85.01
2016-09-06T06:21:34.243Z,84.72
2016-09-06T06:22:34.247Z,84.53
2016-09-06T06:23:34.250Z,84.53
2016-09-06T06:24:34.252Z,84.44
2016-09-06T06:25:34.249Z,84.25
2016-09-06T06:26:34.248Z,84.05
2016-09-06T06:27:34.556Z,83.95
2016-09-06T06:28:34.250Z,84.63
2016-09-06T06:29:34.251Z,83.86
2016-09-06T06:30:34.252Z,83.33
2016-09-06T06:31:34.261Z,81.74
2016-09-06T06:32:34.265Z,79.57
2016-09-06T06:33:34.262Z,77.69
2016-09-06T06:34:34.308Z,75.04
2016-09-06T06:35:34.258Z,72.67
2016-09-06T06:36:34.273Z,70.59
2016-09-06T06:37:34.258Z,68.9
2016-09-06T06:38:34.268Z,67.19
2016-09-06T06:39:34.508Z,65.33
2016-09-06T06:40:34.270Z,63.63
2016-09-06T06:41:34.271Z,61.83
2016-09-06T06:42:34.276Z,60.99
2016-09-06T06:43:34.278Z,59.25
2016-09-06T06:44:34.283Z,57.64
2016-09-06T06:45:34.286Z,57.19
2016-09-06T06:46:34.293Z,56.03
2016-09-06T06:47:34.313Z,55.87
2016-09-06T06:48:34.304Z,54.71
2016-09-06T06:49:34.309Z,54.35
2016-09-06T06:50:34.307Z,54.05
2016-09-06T06:51:34.317Z,53.59
2016-09-06T06:52:34.321Z,53.77
2016-09-06T06:53:34.325Z,53.96
2016-09-06T06:54:34.326Z,53.86
2016-09-06T06:55:34.335Z,52.53
2016-09-06T06:56:34.336Z,51.5
2016-09-06T06:57:34.351Z,51.3
2016-09-06T06:58:34.591Z,50.04
2016-09-06T06:59:34.353Z,49.61
2016-09-06T07:00:34.357Z,48.54
2016-09-06T07:01:34.372Z,47.89
2016-09-06T07:02:34.377Z,47.98
2016-09-06T07:03:34.375Z,47.5
2016-09-06T07:04:34.399Z,47.33
2016-09-06T07:05:34.387Z,47.52
2016-09-06T07:06:34.390Z,48.08
2016-09-06T07:07:34.405Z,48.64
2016-09-06T07:08:34.404Z,49.41
2016-09-06T07:09:34.408Z,51.13
2016-09-06T07:10:34.413Z,52.82
2016-09-06T07:11:34.666Z,53.67
2016-09-06T07:12:34.434Z,54.99
2016-09-06T07:13:34.427Z,56.41
2016-09-06T07:14:34.436Z,57.26
2016-09-06T07:15:34.441Z,58.42
2016-09-06T07:16:34.444Z,59.83
2016-09-06T07:17:34.459Z,60.68
2016-09-06T07:18:34.461Z,60.86
2016-09-06T07:19:34.464Z,60.77
2016-09-06T07:20:34.469Z,59.61
2016-09-06T07:21:34.473Z,58.1
2016-09-06T07:22:34.473Z,56.87
2016-09-06T07:23:34.479Z,55.65
2016-09-06T07:24:34.483Z,54.51
2016-09-06T07:25:34.489Z,53.67
2016-09-06T07:26:34.491Z,52.92
2016-09-06T07:27:34.497Z,52.08
2016-09-06T07:28:34.503Z,51.01
2016-09-06T07:29:34.506Z,50.84
2016-09-06T07:30:34.514Z,49.12
2016-09-06T07:31:34.528Z,49.12
2016-09-06T07:32:34.529Z,47.3
2016-09-06T07:33:34.531Z,46.75
2016-09-06T07:34:34.591Z,45.51
2016-09-06T07:35:34.542Z,45.04
2016-09-06T07:36:34.860Z,44.37
2016-09-06T07:37:34.552Z,43.71
2016-09-06T07:38:34.557Z,44
2016-09-06T07:39:34.566Z,43.9
2016-09-06T07:40:34.571Z,43.9
2016-09-06T07:41:34.578Z,44.09
2016-09-06T07:42:34.582Z,44.09
2016-09-06T07:43:34.590Z,43.22
2016-09-06T07:44:34.599Z,42.83
2016-09-06T07:45:34.604Z,42.76
2016-09-06T07:46:34.613Z,43.34
2016-09-06T07:47:34.621Z,43.9
2016-09-06T07:48:34.622Z,45.82
2016-09-06T07:49:34.628Z,47.33
2016-09-06T07:50:34.648Z,49.8
2016-09-06T07:51:34.650Z,52.46
2016-09-06T07:52:34.647Z,55.79
2016-09-06T07:53:34.652Z,58.42
2016-09-06T07:54:34.661Z,60.38
2016-09-06T07:55:34.678Z,60.58
2016-09-06T07:56:34.678Z,58.39
2016-09-06T07:57:34.680Z,56.77
2016-09-06T07:58:34.683Z,54.41
2016-09-06T07:59:34.694Z,52.82
2016-09-06T08:00:34.711Z,50.33
2016-09-06T08:01:34.712Z,47.86
2016-09-06T08:02:34.700Z,46.94
2016-09-06T08:03:34.715Z,45.51
2016-09-06T08:04:34.715Z,45.41
2016-09-06T08:05:34.719Z,45.24
2016-09-06T08:06:34.724Z,45.14
2016-09-06T08:07:34.727Z,44.46
2016-09-06T08:08:34.743Z,44.85
2016-09-06T08:09:34.747Z,45.04
2016-09-06T08:10:34.757Z,45.8
2016-09-06T08:11:34.756Z,45.31
2016-09-06T08:12:34.764Z,45.53
2016-09-06T08:13:34.765Z,45.51
2016-09-06T08:14:34.772Z,45.14
2016-09-06T08:15:34.780Z,44.95
2016-09-06T08:16:34.781Z,45.04
2016-09-06T08:17:34.800Z,44.27
2016-09-06T08:18:34.795Z,44.07
2016-09-06T08:19:34.802Z,43.22
2016-09-06T08:20:34.810Z,42.54
2016-09-06T08:21:34.815Z,42.08
2016-09-06T08:22:34.822Z,42.18
2016-09-06T08:23:34.828Z,42.66
2016-09-06T08:24:34.837Z,42.18
2016-09-06T08:25:34.921Z,42.46
2016-09-06T08:26:34.844Z,43.34
2016-09-06T08:27:34.866Z,45.24
2016-09-06T08:28:34.861Z,48.1
2016-09-06T08:29:34.864Z,50.74
2016-09-06T08:30:34.874Z,52.08
2016-09-06T08:31:34.885Z,53.86
2016-09-06T08:32:34.884Z,55.96
2016-09-06T08:33:34.896Z,57.09
2016-09-06T08:34:34.946Z,58.22
2016-09-06T08:35:34.903Z,59.35
2016-09-06T08:36:34.907Z,60.38
2016-09-06T08:37:34.913Z,61.32
2016-09-06T08:38:34.919Z,61.51
2016-09-06T08:39:34.924Z,62.38
2016-09-06T08:40:34.944Z,62.73
2016-09-06T08:41:34.940Z,63.02
2016-09-06T08:42:34.938Z,62.63
2016-09-06T08:43:34.947Z,62.83
2016-09-06T08:44:34.954Z,62.83
2016-09-06T08:45:34.953Z,63.12
2016-09-06T08:46:34.956Z,63.67
2016-09-06T08:47:34.961Z,63.57
2016-09-06T08:48:34.965Z,64.05
2016-09-06T08:49:34.977Z,64.25
2016-09-06T08:50:34.974Z,64.34
2016-09-06T08:51:34.977Z,64.47
2016-09-06T08:52:34.983Z,64.08
2016-09-06T08:53:34.986Z,63.5
2016-09-06T08:54:34.987Z,63.21
2016-09-06T08:55:35.017Z,62.57
2016-09-06T08:56:35.000Z,62.66
2016-09-06T08:57:35.018Z,63.15
2016-09-06T08:58:35.019Z,63.02
2016-09-06T08:59:35.323Z,63.02
2016-09-06T09:00:35.021Z,64.18
2016-09-06T09:01:35.018Z,65.72
2016-09-06T09:02:35.023Z,64.28
2016-09-06T09:03:35.027Z,64.47
2016-09-06T09:04:35.026Z,64.18
2016-09-06T09:05:35.030Z,64.18
2016-09-06T09:06:35.039Z,63.6
2016-09-06T09:07:35.048Z,63.02
2016-09-06T09:08:35.046Z,62.57
2016-09-06T09:09:35.044Z,62.09
2016-09-06T09:10:35.049Z,61.64
2016-09-06T09:11:35.057Z,61.25
2016-09-06T09:12:35.055Z,61.83
2016-09-06T09:13:35.059Z,61.16
2016-09-06T09:14:35.084Z,61.44
2016-09-06T09:15:35.068Z,61.61
2016-09-06T09:16:35.088Z,62.48
2016-09-06T09:17:35.090Z,62.66
2016-09-06T09:18:35.089Z,63.89
2016-09-06T09:19:35.089Z,64.08
2016-09-06T09:20:35.089Z,64.37
2016-09-06T09:21:35.090Z,63.6
2016-09-06T09:22:35.089Z,64.08
2016-09-06T09:23:35.091Z,64.28
2016-09-06T09:24:35.095Z,64.18
2016-09-06T09:25:35.100Z,63.79
2016-09-06T09:26:35.101Z,63.98
2016-09-06T09:27:35.114Z,63.79
2016-09-06T09:28:35.113Z,63.79
2016-09-06T09:29:35.115Z,63.5
2016-09-06T09:30:35.121Z,63.5
2016-09-06T09:31:35.119Z,63.82
2016-09-06T09:32:35.123Z,63.06
2016-09-06T09:33:35.123Z,62.76
2016-09-06T09:34:35.430Z,63.06
2016-09-06T09:35:35.137Z,62.28
2016-09-06T09:36:35.135Z,62.96
2016-09-06T09:37:35.145Z,63.15
2016-09-06T09:38:35.145Z,62.09
2016-09-06T09:39:35.150Z,62.96
2016-09-06T09:40:35.150Z,62.38
2016-09-06T09:41:35.153Z,62.63
2016-09-06T09:42:35.156Z,63.12
2016-09-06T09:43:35.163Z,62.93
2016-09-06T09:44:35.162Z,62.93
2016-09-06T09:45:35.165Z,62.6
2016-09-06T09:46:35.168Z,63.28
2016-09-06T09:47:35.486Z,63.5
2016-09-06T09:48:35.176Z,63.79
2016-09-06T09:49:35.493Z,64.08
2016-09-06T09:50:35.192Z,63.89
2016-09-06T09:51:35.189Z,64.47
2016-09-06T09:52:35.190Z,63.6
2016-09-06T09:53:35.189Z,63.02
2016-09-06T09:54:35.192Z,62.06
2016-09-06T09:55:35.248Z,61.77
2016-09-06T09:56:35.199Z,61.51
2016-09-06T09:57:35.202Z,62.38
2016-09-06T09:58:35.205Z,60.93
2016-09-06T09:59:35.217Z,60.93
2016-09-06T10:00:35.211Z,61.16
2016-09-06T10:01:35.214Z,61.16
2016-09-06T10:02:35.220Z,61.06
2016-09-06T10:03:35.223Z,61.35
2016-09-06T10:04:35.225Z,61.06
2016-09-06T10:05:35.229Z,60.86
2016-09-06T10:06:35.231Z,60.19
2016-09-06T10:07:35.235Z,59.16
2016-09-06T10:08:35.238Z,58.39
2016-09-06T10:09:35.240Z,58.87
2016-09-06T10:10:35.244Z,59.74
2016-09-06T10:11:35.255Z,58.97
2016-09-06T10:12:35.257Z,59.25
2016-09-06T10:13:35.256Z,59.25
2016-09-06T10:14:35.261Z,60.58
2016-09-06T10:15:35.271Z,60.31
2016-09-06T10:16:35.270Z,58.84
2016-09-06T10:17:35.965Z,59.45
2016-09-06T10:18:35.274Z,59.83
2016-09-06T10:19:35.276Z,59.16
2016-09-06T10:20:35.291Z,58.48
2016-09-06T10:21:35.285Z,57.14
2016-09-06T10:22:35.299Z,56.58
2016-09-06T10:23:35.291Z,56.1
2016-09-06T10:24:35.295Z,56.68
2016-09-06T10:25:35.297Z,57.26
2016-09-06T10:26:35.302Z,57.16
2016-09-06T10:27:35.306Z,57.04
2016-09-06T10:28:35.306Z,57.81
2016-09-06T10:29:35.311Z,58.19
2016-09-06T10:30:35.562Z,58.39
2016-09-06T10:31:35.318Z,58.48
2016-09-06T10:32:35.322Z,58.48
2016-09-06T10:33:35.326Z,59.06
2016-09-06T10:34:35.539Z,58.97
2016-09-06T10:35:35.348Z,58.58
2016-09-06T10:36:35.352Z,59.45
2016-09-06T10:38:35.353Z,58.77
2016-09-06T10:39:35.352Z,58.68
2016-09-06T10:40:35.360Z,58.87
2016-09-06T10:41:35.357Z,59.16
2016-09-06T10:42:35.360Z,59.03
2016-09-06T10:43:35.366Z,58.65
2016-09-06T10:44:35.368Z,58.97
2016-09-06T10:45:35.372Z,58.84
2016-09-06T10:46:35.374Z,58.77
2016-09-06T10:47:35.388Z,59.06
2016-09-06T10:48:35.390Z,58.58
2016-09-06T10:49:35.390Z,58.77
2016-09-06T10:50:35.391Z,58.39
2016-09-06T10:51:35.393Z,58.77
2016-09-06T10:52:35.396Z,58.39
2016-09-06T10:53:35.402Z,58.58
2016-09-06T10:54:35.656Z,58.19
2016-09-06T10:55:35.408Z,57.49
2016-09-06T10:56:35.417Z,58.26
2016-09-06T10:57:35.433Z,58.45
2016-09-06T10:58:35.432Z,58.36
2016-09-06T10:59:35.431Z,58.07
2016-09-06T11:00:35.433Z,57.87
2016-09-06T11:01:36.551Z,57.62
2016-09-06T11:02:36.640Z,57.52
2016-09-06T11:03:36.496Z,56.96
2016-09-06T11:04:35.682Z,56.68
2016-09-06T11:05:35.920Z,55.9
2016-09-06T11:06:35.456Z,55.55
2016-09-06T11:07:36.504Z,55.83
2016-09-06T11:08:36.145Z,55.35
2016-09-06T11:09:35.460Z,54.97
2016-09-06T11:10:35.463Z,53.83
2016-09-06T11:11:36.077Z,53.57
2016-09-06T11:12:35.473Z,52.82
2016-09-06T11:13:36.377Z,52.24
2016-09-06T11:14:36.693Z,51.1
2016-09-06T11:15:35.726Z,51.04
2016-09-06T11:16:36.031Z,50.84
2016-09-06T11:17:35.810Z,50.26
2016-09-06T11:18:36.376Z,51.5
2016-09-06T11:19:36.525Z,52.36
2016-09-06T11:20:35.533Z,52.82
2016-09-06T11:21:35.655Z,52.53
2016-09-06T11:22:35.719Z,52.7
2016-09-06T11:23:36.187Z,52.8
2016-09-06T11:24:35.784Z,52.02
2016-09-06T11:25:35.870Z,53.09
2016-09-06T11:26:35.537Z,53.77
2016-09-06T11:27:35.534Z,53.74
2016-09-06T11:28:35.541Z,53.64
2016-09-06T11:29:35.543Z,53.83
2016-09-06T11:30:35.550Z,54.1
2016-09-06T11:31:35.877Z,54.39
2016-09-06T11:32:35.557Z,55.26
2016-09-06T11:33:35.561Z,55.26
2016-09-06T11:34:36.519Z,54.1
2016-09-06T11:35:35.570Z,53.91
2016-09-06T11:36:35.573Z,53.33
2016-09-06T11:37:35.577Z,52.65
2016-09-06T11:38:35.582Z,52.94
2016-09-06T11:39:35.584Z,52.75
2016-09-06T11:40:35.590Z,52.84
2016-09-06T11:41:35.600Z,52.75
2016-09-06T11:42:35.844Z,53.42
2016-09-06T11:43:35.600Z,54.77
2016-09-06T11:44:35.605Z,54.1
2016-09-06T11:45:35.608Z,53.91
2016-09-06T11:46:35.615Z,53.52
2016-09-06T11:47:35.617Z,53.71
2016-09-06T11:48:35.636Z,53.42
2016-09-06T11:49:35.624Z,55.07
2016-09-06T11:50:35.630Z,55.65
2016-09-06T11:51:35.635Z,53.74
2016-09-06T11:52:35.651Z,53.35
2016-09-06T11:53:35.642Z,53.35
2016-09-06T11:54:35.659Z,52.89
2016-09-06T11:55:35.671Z,52.89
2016-09-06T11:56:35.653Z,52.12
2016-09-06T11:57:35.661Z,51.76
2016-09-06T11:58:35.673Z,50.98
2016-09-06T11:59:35.668Z,50.79
2016-09-06T12:00:35.671Z,49.92
2016-09-06T12:01:35.675Z,50.24
2016-09-06T12:02:35.687Z,50.5
2016-09-06T12:03:35.703Z,50.5
2016-09-06T12:04:35.694Z,50.12
2016-09-06T12:05:35.696Z,50.7
2016-09-06T12:06:35.696Z,51.44
2016-09-06T12:07:35.701Z,52.31
2016-09-06T12:08:35.708Z,51.54
2016-09-06T12:09:35.712Z,51.54
2016-09-06T12:10:36.025Z,51.71
2016-09-06T12:11:35.731Z,51.25
2016-09-06T12:12:35.720Z,52.99
2016-09-06T12:13:35.735Z,53.64
2016-09-06T12:14:35.743Z,52.29
2016-09-06T12:15:35.741Z,53.45
2016-09-06T12:16:35.740Z,53.64
2016-09-06T12:17:35.744Z,52.19
2016-09-06T12:18:35.747Z,52.29
2016-09-06T12:19:35.749Z,51.51
2016-09-06T12:20:35.755Z,51.32
2016-09-06T12:21:35.762Z,50.93
2016-09-06T12:22:35.778Z,50.67
2016-09-06T12:23:35.767Z,50.57
2016-09-06T12:24:35.771Z,50.67
2016-09-06T12:25:35.785Z,50.09
2016-09-06T12:26:35.785Z,49.22
2016-09-06T12:27:35.785Z,49.22
2016-09-06T12:28:35.791Z,49.6
2016-09-06T12:29:35.789Z,48.95
2016-09-06T12:30:35.802Z,49.34
2016-09-06T12:31:35.808Z,48.18
2016-09-06T12:32:35.810Z,48.3
2016-09-06T12:33:35.811Z,48.2
2016-09-06T12:34:35.872Z,48.2
2016-09-06T12:35:35.822Z,46.66
2016-09-06T12:36:35.825Z,46.17
2016-09-06T12:37:35.826Z,46.26
2016-09-06T12:38:35.829Z,46.46
2016-09-06T12:39:35.836Z,47.21
2016-09-06T12:40:35.844Z,48.95
2016-09-06T12:41:35.843Z,49.44
2016-09-06T12:42:35.853Z,50.12
2016-09-06T12:43:35.855Z,50.4
2016-09-06T12:44:35.863Z,50.31
2016-09-06T12:45:35.861Z,51.44
2016-09-06T12:46:35.864Z,49.9
2016-09-06T12:47:35.868Z,50.45
2016-09-06T12:48:35.873Z,49.58
2016-09-06T12:49:35.877Z,49.68
2016-09-06T12:50:35.882Z,49.68
2016-09-06T12:51:35.882Z,49.29
2016-09-06T12:52:35.894Z,49.49
2016-09-06T12:53:36.138Z,51.9
2016-09-06T12:54:35.897Z,49.51
2016-09-06T12:55:35.900Z,49.7